Bw Wren — 9V2927 — position and weather

sailwx.info

Track history (hours):
 
Tides and Currents Weather Stations Pressure Air Temp Water Temp Dewpoint Dewpoint Depression Visibility Wind Speed Wind Dir Waves Ship Positions

Bw Wren

Last reported at 2017-Sep-20 20:56 UTC. Time now 2017-Sep-20 22:12 UTC.
Position N 51°53' E 004°18'.

Length 183 m; draft 7.8 m.

Type: Ship. MMSI: 563889000.

Date/timePositionNaut miles runAvg speedWind from/ knotsBaromVisibWave heightAir tempDewpointWater temp
2017-Sep-20 20:56N 51°53' E 004°18'0 0.0
2017-Sep-20 20:26N 51°53' E 004°18'0 0.0
2017-Sep-20 19:38N 51°53' E 004°18'0 0.0
2017-Sep-20 19:26N 51°53' E 004°18'0 0.0
2017-Sep-20 18:50N 51°53' E 004°18'0 0.0
2017-Sep-20 18:26N 51°53' E 004°18'0 0.0
2017-Sep-20 17:50N 51°53' E 004°18'0 0.0
2017-Sep-20 17:02N 51°53' E 004°18'0 0.0
2017-Sep-20 16:50N 51°53' E 004°18'0 0.0
2017-Sep-20 16:26N 51°53' E 004°18'0 0.0
2017-Sep-20 15:56N 51°53' E 004°18'0 0.0
2017-Sep-20 15:20N 51°53' E 004°18'0 0.0
2017-Sep-20 14:56N 51°53' E 004°18'0 0.0
2017-Sep-20 13:56N 51°53' E 004°18'0 0.0
2017-Sep-20 13:26N 51°53' E 004°18'0 0.0
2017-Sep-20 12:50N 51°53' E 004°18'0 0.0
2017-Sep-20 12:26N 51°53' E 004°18'0 0.0
2017-Sep-20 11:56N 51°53' E 004°18'0 0.0
2017-Sep-20 11:26N 51°53' E 004°18'0 0.0
2017-Sep-20 10:56N 51°53' E 004°18'0 0.0
2017-Sep-20 10:26N 51°53' E 004°18'0 0.0
2017-Sep-20 09:56N 51°53' E 004°18'0 0.0
2017-Sep-20 09:26N 51°53' E 004°18'0 0.0
2017-Sep-20 08:56N 51°53' E 004°18'0 0.0
2017-Sep-20 08:26N 51°53' E 004°18'0 0.0
2017-Sep-20 07:50N 51°53' E 004°18'0 0.0
2017-Sep-20 07:20N 51°53' E 004°18'0 0.0
2017-Sep-20 06:56N 51°53' E 004°18'0 0.0
2017-Sep-20 06:29N 51°53' E 004°18'0 0.0
2017-Sep-20 05:56N 51°53' E 004°18'0 0.0
2017-Sep-20 05:24N 51°53' E 004°18'0 0.9
2017-Sep-20 05:00N 51°53' E 004°18'1 2.6
2017-Sep-20 04:30N 51°54' E 004°17'4 7.6
2017-Sep-20 04:00N 51°56' E 004°12'3 6.2
2017-Sep-20 03:30N 51°58' E 004°08'4 8.7
2017-Sep-20 03:00N 51°60' E 004°02'612.0
2017-Sep-20 02:30N 52°01' E 003°52'5 9.9
2017-Sep-20 02:00N 51°60' E 003°44'510.1
2017-Sep-20 01:30N 51°57' E 003°37'3 0.3
2017-Sep-19 16:53N 51°55' E 003°34'0 0.2
2017-Sep-19 16:29N 51°55' E 003°34'0 0.1
2017-Sep-19 15:59N 51°55' E 003°34'0 0.0
2017-Sep-19 15:29N 51°55' E 003°34'0 0.0
2017-Sep-19 14:59N 51°55' E 003°34'0 0.0
2017-Sep-19 14:29N 51°55' E 003°34'0 0.1
2017-Sep-19 13:59N 51°55' E 003°34'22 9.2
2017-Sep-19 11:36N 51°50' E 002°59'215.9
2017-Sep-19 11:28N 51°50' E 002°56'815.7
2017-Sep-19 10:59N 51°47' E 002°45'815.1
2017-Sep-19 10:29N 51°43' E 002°35'714.8
2017-Sep-19 10:00N 51°37' E 002°27'714.3
2017-Sep-19 09:30N 51°32' E 002°20'713.8
2017-Sep-19 09:00N 51°27' E 002°12'612.2
2017-Sep-19 08:30N 51°22' E 002°08'612.7
2017-Sep-19 08:00N 51°16' E 002°06'611.7
2017-Sep-19 07:30N 51°12' E 001°59'612.2
2017-Sep-19 07:00N 51°09' E 001°50'611.5
2017-Sep-19 06:30N 51°05' E 001°43'510.3
2017-Sep-19 06:00N 51°02' E 001°38'4 8.0
2017-Sep-19 05:30N 50°59' E 001°34'4 8.4
2017-Sep-19 05:00N 50°55' E 001°29'611.4
2017-Sep-19 04:29N 50°50' E 001°26'712.7
2017-Sep-19 03:58N 50°44' E 001°22'4313.2
2017-Sep-19 00:40N 50°22' E 000°23'214.0
2017-Sep-19 00:30N 50°21' E 000°20'714.0
2017-Sep-19 00:00N 50°19' E 000°10'1114.3
2017-Sep-18 23:16N 50°16' W 000°06'4315.7
2017-Sep-18 20:32N 50°05' W 001°11'117.6
2017-Sep-18 20:30N 50°05' W 001°12'917.9
2017-Sep-18 20:00N 50°02' W 001°25'918.4
2017-Sep-18 19:30N 50°01' W 001°39'919.0
2017-Sep-18 19:00N 49°59' W 001°54'1019.1
2017-Sep-18 18:28N 49°56' W 002°09'2118.1
2017-Sep-18 17:17N 49°51' W 002°41'517.4
2017-Sep-18 17:00N 49°49' W 002°48'916.9
2017-Sep-18 16:27N 49°45' W 003°01'716.7
2017-Sep-18 16:00N 49°41' W 003°11'816.5
2017-Sep-18 15:30N 49°37' W 003°22'7415.4
2017-Sep-18 10:43N 49°02' W 005°02'514.1
2017-Sep-18 10:21N 48°59' W 005°08'514.0
2017-Sep-18 10:00N 48°56' W 005°14'713.7
2017-Sep-18 09:31N 48°53' W 005°23'713.7
2017-Sep-18 09:01N 48°50' W 005°32'813.0
2017-Sep-18 08:24N 48°44' W 005°41'813.4
2017-Sep-18 07:49N 48°37' W 005°47'1313.1
2017-Sep-18 06:49N 48°25' W 005°55'  
2017-Sep-15 06:42N 32°33' W 014°08'314.2
2017-Sep-15 06:30N 32°30' W 014°09'714.0
2017-Sep-15 06:00N 32°23' W 014°11'8813.5
2017-Sep-14 23:28N 30°58' W 014°38'713.6
2017-Sep-14 22:59N 30°52' W 014°40'713.9
2017-Sep-14 22:28N 30°45' W 014°42'2914.0
2017-Sep-14 20:22N 30°16' W 014°51'614.5
2017-Sep-14 20:00N 30°11' W 014°52'714.6
2017-Sep-14 19:29N 30°04' W 014°55'714.3
2017-Sep-14 19:00N 29°57' W 014°57'714.4
2017-Sep-14 18:31N 29°50' W 014°59'714.8
2017-Sep-14 18:00N 29°43' W 015°01'1114.8
2017-Sep-14 17:15N 29°32' W 015°04'414.9
2017-Sep-14 17:00N 29°29' W 015°05'814.9
2017-Sep-14 16:30N 29°22' W 015°07'714.9
2017-Sep-14 16:00N 29°14' W 015°10'1114.7
2017-Sep-14 15:16N 29°04' W 015°13'414.4
2017-Sep-14 15:00N 29°01' W 015°15'914.7
2017-Sep-14 14:22N 28°54' W 015°22'514.6
2017-Sep-14 14:00N 28°50' W 015°26'714.5
2017-Sep-14 13:30N 28°45' W 015°32'714.5
2017-Sep-14 13:00N 28°39' W 015°37'714.4
2017-Sep-14 12:30N 28°34' W 015°42'714.4
2017-Sep-14 12:00N 28°28' W 015°48'714.3
2017-Sep-14 11:30N 28°22' W 015°53'714.1
2017-Sep-14 11:00N 28°17' W 015°58'1213.4
2017-Sep-14 10:06N 28°08' W 016°07'112.8
2017-Sep-14 10:00N 28°07' W 016°08'1113.1
2017-Sep-14 09:11N 27°59' W 016°15'  
Track history (hours):
 
Tides and Currents Weather Stations Pressure Air Temp Water Temp Dewpoint Dewpoint Depression Visibility Wind Speed Wind Dir Waves Ship Positions

Bw Wren

Last reported at 2017-Sep-20 20:56 UTC. Time now 2017-Sep-20 22:12 UTC.
Position N 51°53' E 004°18'.

Length 183 m; draft 7.8 m.

Type: Ship. MMSI: 563889000.

Date/timePositionNaut miles runAvg speedWind from/ knotsBaromVisibWave heightAir tempDewpointWater temp
2017-Sep-20 20:56N 51°53' E 004°18'0 0.0
2017-Sep-20 20:26N 51°53' E 004°18'0 0.0
2017-Sep-20 19:38N 51°53' E 004°18'0 0.0
2017-Sep-20 19:26N 51°53' E 004°18'0 0.0
2017-Sep-20 18:50N 51°53' E 004°18'0 0.0
2017-Sep-20 18:26N 51°53' E 004°18'0 0.0
2017-Sep-20 17:50N 51°53' E 004°18'0 0.0
2017-Sep-20 17:02N 51°53' E 004°18'0 0.0
2017-Sep-20 16:50N 51°53' E 004°18'0 0.0
2017-Sep-20 16:26N 51°53' E 004°18'0 0.0
2017-Sep-20 15:56N 51°53' E 004°18'0 0.0
2017-Sep-20 15:20N 51°53' E 004°18'0 0.0
2017-Sep-20 14:56N 51°53' E 004°18'0 0.0
2017-Sep-20 13:56N 51°53' E 004°18'0 0.0
2017-Sep-20 13:26N 51°53' E 004°18'0 0.0
2017-Sep-20 12:50N 51°53' E 004°18'0 0.0
2017-Sep-20 12:26N 51°53' E 004°18'0 0.0
2017-Sep-20 11:56N 51°53' E 004°18'0 0.0
2017-Sep-20 11:26N 51°53' E 004°18'0 0.0
2017-Sep-20 10:56N 51°53' E 004°18'0 0.0
2017-Sep-20 10:26N 51°53' E 004°18'0 0.0
2017-Sep-20 09:56N 51°53' E 004°18'0 0.0
2017-Sep-20 09:26N 51°53' E 004°18'0 0.0
2017-Sep-20 08:56N 51°53' E 004°18'0 0.0
2017-Sep-20 08:26N 51°53' E 004°18'0 0.0
2017-Sep-20 07:50N 51°53' E 004°18'0 0.0
2017-Sep-20 07:20N 51°53' E 004°18'0 0.0
2017-Sep-20 06:56N 51°53' E 004°18'0 0.0
2017-Sep-20 06:29N 51°53' E 004°18'0 0.0
2017-Sep-20 05:56N 51°53' E 004°18'0 0.0
2017-Sep-20 05:24N 51°53' E 004°18'0 0.9
2017-Sep-20 05:00N 51°53' E 004°18'1 2.6
2017-Sep-20 04:30N 51°54' E 004°17'4 7.6
2017-Sep-20 04:00N 51°56' E 004°12'3 6.2
2017-Sep-20 03:30N 51°58' E 004°08'4 8.7
2017-Sep-20 03:00N 51°60' E 004°02'612.0
2017-Sep-20 02:30N 52°01' E 003°52'5 9.9
2017-Sep-20 02:00N 51°60' E 003°44'510.1
2017-Sep-20 01:30N 51°57' E 003°37'3 0.3
2017-Sep-19 16:53N 51°55' E 003°34'0 0.2
2017-Sep-19 16:29N 51°55' E 003°34'0 0.1
2017-Sep-19 15:59N 51°55' E 003°34'0 0.0
2017-Sep-19 15:29N 51°55' E 003°34'0 0.0
2017-Sep-19 14:59N 51°55' E 003°34'0 0.0
2017-Sep-19 14:29N 51°55' E 003°34'0 0.1
2017-Sep-19 13:59N 51°55' E 003°34'22 9.2
2017-Sep-19 11:36N 51°50' E 002°59'215.9
2017-Sep-19 11:28N 51°50' E 002°56'815.7
2017-Sep-19 10:59N 51°47' E 002°45'815.1
2017-Sep-19 10:29N 51°43' E 002°35'714.8
2017-Sep-19 10:00N 51°37' E 002°27'714.3
2017-Sep-19 09:30N 51°32' E 002°20'713.8
2017-Sep-19 09:00N 51°27' E 002°12'612.2
2017-Sep-19 08:30N 51°22' E 002°08'612.7
2017-Sep-19 08:00N 51°16' E 002°06'611.7
2017-Sep-19 07:30N 51°12' E 001°59'612.2
2017-Sep-19 07:00N 51°09' E 001°50'611.5
2017-Sep-19 06:30N 51°05' E 001°43'510.3
2017-Sep-19 06:00N 51°02' E 001°38'4 8.0
2017-Sep-19 05:30N 50°59' E 001°34'4 8.4
2017-Sep-19 05:00N 50°55' E 001°29'611.4
2017-Sep-19 04:29N 50°50' E 001°26'712.7
2017-Sep-19 03:58N 50°44' E 001°22'4313.2
2017-Sep-19 00:40N 50°22' E 000°23'214.0
2017-Sep-19 00:30N 50°21' E 000°20'714.0
2017-Sep-19 00:00N 50°19' E 000°10'1114.3
2017-Sep-18 23:16N 50°16' W 000°06'4315.7
2017-Sep-18 20:32N 50°05' W 001°11'117.6
2017-Sep-18 20:30N 50°05' W 001°12'917.9
2017-Sep-18 20:00N 50°02' W 001°25'918.4
2017-Sep-18 19:30N 50°01' W 001°39'919.0
2017-Sep-18 19:00N 49°59' W 001°54'1019.1
2017-Sep-18 18:28N 49°56' W 002°09'2118.1
2017-Sep-18 17:17N 49°51' W 002°41'517.4
2017-Sep-18 17:00N 49°49' W 002°48'916.9
2017-Sep-18 16:27N 49°45' W 003°01'716.7
2017-Sep-18 16:00N 49°41' W 003°11'816.5
2017-Sep-18 15:30N 49°37' W 003°22'7415.4
2017-Sep-18 10:43N 49°02' W 005°02'514.1
2017-Sep-18 10:21N 48°59' W 005°08'514.0
2017-Sep-18 10:00N 48°56' W 005°14'713.7
2017-Sep-18 09:31N 48°53' W 005°23'713.7
2017-Sep-18 09:01N 48°50' W 005°32'813.0
2017-Sep-18 08:24N 48°44' W 005°41'813.4
2017-Sep-18 07:49N 48°37' W 005°47'1313.1
2017-Sep-18 06:49N 48°25' W 005°55'  
2017-Sep-15 06:42N 32°33' W 014°08'314.2
2017-Sep-15 06:30N 32°30' W 014°09'714.0
2017-Sep-15 06:00N 32°23' W 014°11'8813.5
2017-Sep-14 23:28N 30°58' W 014°38'713.6
2017-Sep-14 22:59N 30°52' W 014°40'713.9
2017-Sep-14 22:28N 30°45' W 014°42'2914.0
2017-Sep-14 20:22N 30°16' W 014°51'614.5
2017-Sep-14 20:00N 30°11' W 014°52'714.6
2017-Sep-14 19:29N 30°04' W 014°55'714.3
2017-Sep-14 19:00N 29°57' W 014°57'714.4
2017-Sep-14 18:31N 29°50' W 014°59'714.8
2017-Sep-14 18:00N 29°43' W 015°01'1114.8
2017-Sep-14 17:15N 29°32' W 015°04'414.9
2017-Sep-14 17:00N 29°29' W 015°05'814.9
2017-Sep-14 16:30N 29°22' W 015°07'714.9
2017-Sep-14 16:00N 29°14' W 015°10'1114.7
2017-Sep-14 15:16N 29°04' W 015°13'414.4
2017-Sep-14 15:00N 29°01' W 015°15'914.7
2017-Sep-14 14:22N 28°54' W 015°22'514.6
2017-Sep-14 14:00N 28°50' W 015°26'714.5
2017-Sep-14 13:30N 28°45' W 015°32'714.5
2017-Sep-14 13:00N 28°39' W 015°37'714.4
2017-Sep-14 12:30N 28°34' W 015°42'714.4
2017-Sep-14 12:00N 28°28' W 015°48'714.3
2017-Sep-14 11:30N 28°22' W 015°53'714.1
2017-Sep-14 11:00N 28°17' W 015°58'1213.4
2017-Sep-14 10:06N 28°08' W 016°07'112.8
2017-Sep-14 10:00N 28°07' W 016°08'1113.1
2017-Sep-14 09:11N 27°59' W 016°15'  

Dump ship's entire track history